Time;durP1;ratioP1;P1;durP2;ratioP2;P2;SDS_P1;SDS_P2;PMS_P1;PMS_P2;Temp;Humidity;BMP_temperature;BMP_pressure;BME280_temperature;BME280_humidity;BME280_pressure;Samples;Min_cycle;Max_cycle;Signal;HPM_P1;HPM_P2
2023/01/18 00:01:05;;;;;;;2.20;0.98;;;;;;;11.96;47.32;93031.38;5104993;28;20153;-68
2023/01/18 00:03:33;;;;;;;1.85;0.95;;;;;;;12.01;47.40;93055.88;5092068;28;20153;-69
2023/01/18 00:06:00;;;;;;;1.88;0.90;;;;;;;12.35;46.85;93075.34;5075453;28;20509;-69
2023/01/18 00:08:26;;;;;;;0.90;0.60;;;;;;;12.58;46.80;93097.88;5058370;28;20123;-69
2023/01/18 00:10:51;;;;;;;1.35;0.70;;;;;;;12.31;46.89;93058.47;5058236;28;20547;-69
2023/01/18 00:13:17;;;;;;;2.67;1.17;;;;;;;12.20;46.61;93032.88;5091653;28;20032;-68
2023/01/18 00:15:42;;;;;;;4.90;0.80;;;;;;;12.06;46.55;93021.47;5091718;28;20486;-68
2023/01/18 00:18:08;;;;;;;2.58;1.15;;;;;;;12.24;46.95;93039.34;5091647;28;20474;-69
2023/01/18 00:20:33;;;;;;;1.67;0.93;;;;;;;12.60;46.78;93101.13;5109613;28;20426;-69
2023/01/18 00:22:59;;;;;;;4.00;0.70;;;;;;;12.30;46.44;93028.22;5112173;28;20041;-68
2023/01/18 00:25:25;;;;;;;2.85;0.98;;;;;;;12.37;46.54;93021.31;5078264;28;20505;-69
2023/01/18 00:27:51;;;;;;;1.90;0.90;;;;;;;12.59;46.50;93115.13;5074735;28;20043;-69
2023/01/18 00:30:19;;;;;;;3.65;1.60;;;;;;;12.40;46.44;93020.94;5058022;28;20056;-68
2023/01/18 00:32:45;;;;;;;1.90;1.15;;;;;;;12.34;46.70;93055.53;5074608;28;20039;-69
2023/01/18 00:35:11;;;;;;;2.00;0.63;;;;;;;12.34;46.40;93039.06;5074527;28;20028;-69
2023/01/18 00:37:37;;;;;;;1.00;0.70;;;;;;;12.67;46.58;93107.22;5074568;28;20088;-68
2023/01/18 00:40:03;;;;;;;1.25;0.60;;;;;;;12.72;46.33;93099.66;5074439;28;20036;-68
2023/01/18 00:45:13;;;;;;;0.70;0.60;;;;;;;12.65;46.86;93090.97;5077337;28;20100;-69
2023/01/18 00:47:38;;;;;;;1.90;1.05;;;;;;;12.14;47.03;93020.59;5093614;28;20044;-68
2023/01/18 00:50:04;;;;;;;2.85;0.93;;;;;;;12.25;46.86;93036.56;5112571;28;20490;-68
2023/01/18 00:52:30;;;;;;;2.55;0.85;;;;;;;12.20;46.72;93066.72;5094462;28;20043;-69
2023/01/18 00:54:55;;;;;;;2.65;1.52;;;;;;;12.24;46.55;93028.94;5092111;28;20037;-68
2023/01/18 00:57:21;;;;;;;1.92;0.70;;;;;;;12.36;46.50;93092.59;5057246;28;20027;-68
2023/01/18 00:59:46;;;;;;;1.92;0.60;;;;;;;12.58;46.50;93077.03;5057271;28;20051;-69
2023/01/18 01:02:13;;;;;;;1.42;0.70;;;;;;;12.22;46.50;93023.91;5073963;28;20035;-69
2023/01/18 01:07:22;;;;;;;1.92;0.60;;;;;;;12.07;47.05;93052.53;5090905;28;20118;-68
2023/01/18 01:09:48;;;;;;;1.50;0.70;;;;;;;12.52;47.10;93094.22;5092453;28;20103;-69
2023/01/18 01:26:07;;;;;;;3.10;1.23;;;;;;;11.87;47.89;93053.22;5076713;28;20062;-68
2023/01/18 01:28:37;;;;;;;3.35;0.90;;;;;;;12.26;48.33;93115.50;5073953;28;20524;-69
2023/01/18 01:31:03;;;;;;;1.02;0.63;;;;;;;12.18;47.87;93105.16;5073545;28;20060;-69
2023/01/18 01:33:29;;;;;;;1.80;0.90;;;;;;;12.11;47.80;93046.97;5075888;28;20097;-69
2023/01/18 01:35:59;;;;;;;3.55;0.70;;;;;;;11.98;48.14;93056.22;5110501;28;20028;-69
2023/01/18 01:38:24;;;;;;;2.72;0.85;;;;;;;12.52;47.97;93126.25;5093704;28;20058;-69
2023/01/18 01:41:24;;;;;;;3.33;0.70;;;;;;;12.55;48.13;93111.28;5089803;28;20436;-69
2023/01/18 01:43:54;;;;;;;1.15;0.50;;;;;;;12.19;48.19;93046.88;5075201;28;20043;-68
2023/01/18 01:46:49;;;;;;;3.07;0.90;;;;;;;12.63;48.34;93111.19;5059640;28;20494;-69
2023/01/18 01:49:26;;;;;;;1.58;0.63;;;;;;;11.96;48.51;93019.16;5102024;28;20067;-68
2023/01/18 01:52:02;;;;;;;1.95;0.77;;;;;;;12.55;48.10;93103.47;5090266;28;20059;-69
2023/01/18 01:54:28;;;;;;;3.10;0.80;;;;;;;12.48;48.69;93075.53;5073103;28;20520;-68
2023/01/18 01:57:10;;;;;;;2.38;0.82;;;;;;;12.08;48.66;93045.53;5089860;28;20051;-69
2023/01/18 01:59:38;;;;;;;2.60;1.02;;;;;;;12.13;48.60;93021.59;5115081;27;20554;-69
2023/01/18 02:02:04;;;;;;;2.67;0.90;;;;;;;12.46;48.50;93102.75;5093396;28;20413;-69
2023/01/18 02:04:29;;;;;;;2.35;0.90;;;;;;;12.38;48.46;93119.25;5093056;28;20035;-69
2023/01/18 02:06:55;;;;;;;1.30;0.90;;;;;;;11.92;48.52;93041.28;5093235;28;20096;-68
2023/01/18 02:09:22;;;;;;;2.75;0.90;;;;;;;11.78;48.59;93044.66;5079437;28;20315;-68
2023/01/18 02:11:49;;;;;;;3.85;0.80;;;;;;;12.02;48.17;93047.06;5056471;28;20036;-69
2023/01/18 02:14:15;;;;;;;2.53;0.90;;;;;;;12.42;47.72;93086.66;5073082;28;20117;-69
2023/01/18 02:17:05;;;;;;;2.20;0.90;;;;;;;12.51;47.93;93092.59;5072943;28;20024;-69
2023/01/18 02:19:46;;;;;;;2.05;0.88;;;;;;;12.42;48.10;93078.84;5090837;28;20490;-69
2023/01/18 02:22:35;;;;;;;2.00;0.73;;;;;;;12.28;48.10;93064.84;5090921;28;20052;-68
2023/01/18 02:25:48;;;;;;;4.38;1.00;;;;;;;12.47;47.53;93112.16;5089711;28;20066;-69
2023/01/18 02:28:16;;;;;;;1.95;0.75;;;;;;;12.29;47.63;93068.25;5014877;28;20037;-69
2023/01/18 02:31:00;;;;;;;4.25;2.10;;;;;;;12.48;47.84;93085.13;5085486;28;20472;-69
2023/01/18 02:33:27;;;;;;;2.95;0.70;;;;;;;12.56;47.63;93115.47;5091094;28;20028;-70
2023/01/18 02:35:55;;;;;;;1.85;0.80;;;;;;;12.55;47.65;93098.25;5095792;28;20043;-69
2023/01/18 02:38:44;;;;;;;2.72;0.73;;;;;;;12.59;47.75;93091.69;5092915;28;20032;-68
2023/01/18 02:41:20;;;;;;;3.35;0.90;;;;;;;12.60;48.43;93119.34;5101620;28;20417;-69
2023/01/18 02:46:34;;;;;;;4.30;1.00;;;;;;;12.36;47.84;93116.00;5094043;28;20066;-69
2023/01/18 02:49:19;;;;;;;2.65;1.13;;;;;;;11.82;47.79;93004.31;5093235;28;20054;-68
2023/01/18 02:51:45;;;;;;;5.72;1.75;;;;;;;12.16;47.38;93068.88;5076149;28;20028;-68
2023/01/18 02:54:10;;;;;;;7.25;1.85;;;;;;;12.45;47.30;93094.13;5091913;28;20074;-68
2023/01/18 02:56:36;;;;;;;3.25;0.98;;;;;;;12.42;47.43;93112.69;5109677;28;20036;-69
2023/01/18 02:59:11;;;;;;;9.35;3.10;;;;;;;12.48;47.59;93125.03;5111196;28;20400;-69
2023/01/18 03:01:59;;;;;;;3.28;1.10;;;;;;;12.36;46.91;93081.38;5092511;28;20027;-69
2023/01/18 03:04:30;;;;;;;5.97;0.80;;;;;;;12.48;47.39;93104.19;5092290;28;20424;-68
2023/01/18 03:07:00;;;;;;;2.72;0.98;;;;;;;12.52;47.34;93110.63;5072520;28;20024;-69
2023/01/18 03:09:26;;;;;;;2.95;0.90;;;;;;;12.08;47.84;93066.34;5089354;28;20028;-69
2023/01/18 03:12:20;;;;;;;3.22;0.70;;;;;;;12.31;47.59;93110.53;5058280;28;20043;-68
2023/01/18 03:15:22;;;;;;;4.28;1.10;;;;;;;12.42;47.17;93128.31;5101080;28;20047;-68
2023/01/18 03:17:58;;;;;;;4.07;0.90;;;;;;;12.08;47.06;93051.53;5111709;28;20035;-69
2023/01/18 03:20:26;;;;;;;2.75;0.80;;;;;;;12.32;46.91;93064.50;5096933;28;20293;-68
2023/01/18 03:25:43;;;;;;;4.95;1.17;;;;;;;12.63;47.37;93074.72;5094190;28;20039;-69
2023/01/18 03:33:51;;;;;;;3.70;0.80;;;;;;;12.78;45.67;93067.66;5107003;28;20173;-69
2023/01/18 03:36:25;;;;;;;2.92;0.90;;;;;;;12.36;46.09;93001.44;5092493;28;20553;-68
2023/01/18 03:38:56;;;;;;;2.97;0.63;;;;;;;12.88;46.22;93081.22;5075432;28;20092;-69
2023/01/18 03:41:25;;;;;;;1.75;0.75;;;;;;;12.42;46.27;93005.94;5076242;28;20028;-69
2023/01/18 03:43:51;;;;;;;3.33;1.10;;;;;;;12.43;46.13;93024.97;5075507;28;20044;-68
2023/01/18 03:46:16;;;;;;;1.95;0.70;;;;;;;12.78;45.43;93078.09;5060876;28;20505;-68
2023/01/18 03:48:41;;;;;;;4.82;0.93;;;;;;;12.45;45.60;93013.41;5077962;28;20488;-68
2023/01/18 03:51:32;;;;;;;3.40;0.90;;;;;;;12.78;45.75;93098.94;5112672;28;20039;-69
2023/01/18 03:54:09;;;;;;;3.00;0.60;;;;;;;12.81;45.03;93088.16;5114031;28;20507;-68
2023/01/18 03:56:35;;;;;;;3.30;0.77;;;;;;;12.89;44.86;93101.06;5096295;28;20042;-69
2023/01/18 03:59:01;;;;;;;4.63;2.30;;;;;;;12.35;45.34;93009.47;5097317;28;20036;-69
2023/01/18 04:01:27;;;;;;;2.47;1.13;;;;;;;12.49;45.12;93025.06;5058831;28;20024;-69
2023/01/18 04:03:52;;;;;;;2.42;0.65;;;;;;;12.77;44.56;93076.47;5075206;28;20514;-69
2023/01/18 04:06:21;;;;;;;2.15;0.77;;;;;;;13.00;44.63;93065.91;5075685;28;20085;-69
2023/01/18 04:08:50;;;;;;;2.63;0.90;;;;;;;12.61;43.99;93014.97;5112373;28;20027;-69
2023/01/18 04:11:15;;;;;;;2.60;1.02;;;;;;;12.75;44.30;93031.56;5095225;28;20027;-69
2023/01/18 04:13:41;;;;;;;2.30;0.70;;;;;;;12.57;44.22;93016.34;5094999;28;20512;-69
2023/01/18 04:16:06;;;;;;;5.18;2.15;;;;;;;12.97;44.26;93056.66;5105011;28;20032;-69
2023/01/18 04:18:32;;;;;;;7.55;3.28;;;;;;;12.66;44.72;93037.88;5093150;28;20040;-69
2023/01/18 04:20:57;;;;;;;2.50;1.20;;;;;;;12.78;44.43;93046.81;5058021;28;20529;-69
2023/01/18 04:23:23;;;;;;;3.17;0.80;;;;;;;13.03;43.95;93096.03;5074894;28;20036;-68
2023/01/18 04:25:49;;;;;;;2.03;1.05;;;;;;;12.41;44.24;92993.91;5104031;28;20416;-69
2023/01/18 04:28:16;;;;;;;2.63;0.98;;;;;;;12.87;44.37;93053.56;5111470;28;20038;-69
2023/01/18 04:30:41;;;;;;;4.57;2.35;;;;;;;13.14;43.85;93066.88;5095156;28;20036;-68
2023/01/18 04:33:07;;;;;;;4.57;0.98;;;;;;;12.97;44.42;93087.94;5094888;28;20031;-69
2023/01/18 04:35:33;;;;;;;1.98;1.00;;;;;;;12.70;44.25;93034.72;5090769;28;20028;-68
2023/01/18 04:37:59;;;;;;;2.17;0.70;;;;;;;13.07;43.88;93068.63;5091205;28;20092;-68
2023/01/18 04:40:24;;;;;;;2.67;0.70;;;;;;;12.74;43.88;93025.53;5074378;28;20472;-70
2023/01/18 04:42:53;;;;;;;3.03;1.30;;;;;;;13.01;44.10;93071.94;5075276;28;20039;-68
2023/01/18 04:45:19;;;;;;;7.22;5.35;;;;;;;13.03;44.16;93054.31;5094647;28;20038;-69
2023/01/18 04:47:45;;;;;;;19.42;12.27;;;;;;;12.65;44.59;93010.22;5077494;28;20040;-68
2023/01/18 04:50:10;;;;;;;3.28;1.70;;;;;;;12.88;44.83;93023.09;5094694;28;20072;-68
2023/01/18 04:52:36;;;;;;;9.52;4.68;;;;;;;12.62;44.48;92961.06;5110085;28;20065;-68
2023/01/18 04:55:01;;;;;;;5.63;1.30;;;;;;;12.58;44.46;92962.44;5109366;28;20081;-69
2023/01/18 04:57:27;;;;;;;4.57;1.55;;;;;;;13.07;44.44;93037.34;5092179;28;20020;-68
2023/01/18 04:59:52;;;;;;;5.32;1.30;;;;;;;12.94;44.75;93025.75;5109337;28;20420;-69
2023/01/18 05:02:18;;;;;;;3.28;0.70;;;;;;;12.67;43.96;92980.38;5075761;28;20480;-73
2023/01/18 05:04:43;;;;;;;2.90;0.60;;;;;;;12.68;44.27;92995.03;5075522;28;20035;-73
2023/01/18 05:07:10;;;;;;;2.03;0.80;;;;;;;12.64;44.02;92952.09;5108978;27;20020;-73
2023/01/18 05:09:35;;;;;;;3.63;1.00;;;;;;;13.18;44.21;93026.41;5106588;28;20031;-74
2023/01/18 05:12:01;;;;;;;3.05;1.20;;;;;;;12.55;44.84;92962.81;5073008;28;20024;-74
2023/01/18 05:14:26;;;;;;;2.80;0.75;;;;;;;12.32;44.96;92958.56;5084870;28;20092;-74
2023/01/18 05:16:52;;;;;;;1.55;0.60;;;;;;;12.49;44.65;92975.56;5111741;28;20028;-74
2023/01/18 05:19:17;;;;;;;4.15;0.80;;;;;;;12.59;44.72;92949.25;5112467;28;20040;-73
2023/01/18 05:21:43;;;;;;;2.30;0.70;;;;;;;12.38;45.16;92930.97;5093890;28;20027;-73
2023/01/18 05:24:08;;;;;;;3.92;1.02;;;;;;;12.97;44.88;93029.78;5110824;28;20070;-73
2023/01/18 05:26:34;;;;;;;7.60;1.08;;;;;;;12.44;44.94;92951.06;5111961;28;20028;-73
2023/01/18 05:28:59;;;;;;;3.05;1.23;;;;;;;12.44;44.99;92961.50;5111604;28;20055;-73
2023/01/18 05:31:25;;;;;;;1.80;0.70;;;;;;;12.39;44.19;92928.19;5111921;28;20031;-73
2023/01/18 05:33:50;;;;;;;4.95;1.20;;;;;;;12.65;44.18;92947.72;5110556;28;20469;-74
2023/01/18 05:36:17;;;;;;;7.00;0.95;;;;;;;12.35;45.14;92942.56;5112252;28;20058;-73
2023/01/18 05:38:43;;;;;;;5.35;0.82;;;;;;;12.41;44.57;92952.25;5111784;28;20036;-73
2023/01/18 05:41:08;;;;;;;1.73;0.60;;;;;;;12.59;44.69;92990.09;5106744;28;20421;-74
2023/01/18 05:43:34;;;;;;;4.57;1.35;;;;;;;12.60;44.96;93026.38;5106866;27;20023;-73
2023/01/18 05:46:00;;;;;;;3.22;1.05;;;;;;;12.64;44.04;92998.16;5106669;28;20031;-76
2023/01/18 05:48:26;;;;;;;6.40;1.45;;;;;;;13.09;44.56;93080.47;5107083;28;20028;-75
2023/01/18 05:50:51;;;;;;;3.42;0.90;;;;;;;12.64;44.42;92988.56;5091552;28;20047;-76
2023/01/18 05:53:18;;;;;;;4.47;0.95;;;;;;;12.69;44.45;93001.84;5109944;28;20062;-74
2023/01/18 05:55:52;;;;;;;2.67;1.05;;;;;;;12.75;44.48;92998.50;5075047;28;20517;-74
2023/01/18 05:58:18;;;;;;;2.22;0.93;;;;;;;12.56;44.43;93019.13;5109580;28;20019;-75
2023/01/18 06:00:43;;;;;;;2.67;0.90;;;;;;;13.13;44.57;93101.75;5109764;28;20085;-77
2023/01/18 06:03:09;;;;;;;2.35;1.05;;;;;;;12.79;44.65;93056.28;5110048;28;20030;-73
2023/01/18 06:05:34;;;;;;;4.35;1.20;;;;;;;12.61;45.07;93045.44;5109163;28;20039;-73
2023/01/18 06:08:00;;;;;;;4.20;1.10;;;;;;;12.51;45.19;93030.09;5087345;28;20448;-74
2023/01/18 06:10:26;;;;;;;4.43;0.90;;;;;;;12.42;45.06;93020.75;5091548;28;20032;-73
2023/01/18 06:12:52;;;;;;;3.47;0.82;;;;;;;12.57;45.02;93044.19;5104082;28;20407;-73
2023/01/18 06:15:17;;;;;;;3.45;1.10;;;;;;;12.45;45.11;92994.34;5089597;28;20089;-73
2023/01/18 06:17:45;;;;;;;3.45;1.00;;;;;;;12.55;44.94;93013.09;5088320;28;20127;-73
2023/01/18 06:20:11;;;;;;;4.20;1.20;;;;;;;12.49;44.75;93011.22;5074790;28;20032;-73
2023/01/18 06:22:37;;;;;;;4.93;0.98;;;;;;;12.51;45.02;93010.06;5102767;28;20072;-72
2023/01/18 06:25:02;;;;;;;4.10;0.98;;;;;;;12.67;44.78;93029.06;5086367;28;20040;-73
2023/01/18 06:27:28;;;;;;;3.70;1.05;;;;;;;12.63;44.93;93025.22;5090016;28;20540;-73
2023/01/18 06:29:54;;;;;;;3.63;0.90;;;;;;;12.59;45.33;93031.75;5104946;28;20429;-73
2023/01/18 06:32:21;;;;;;;3.97;1.08;;;;;;;13.13;45.30;93088.72;5099612;28;20116;-73
2023/01/18 06:34:49;;;;;;;3.35;0.77;;;;;;;13.09;45.32;93084.84;5069786;28;20544;-73
2023/01/18 06:37:14;;;;;;;4.13;0.93;;;;;;;13.07;45.25;93068.63;5088475;28;20111;-73
2023/01/18 06:39:40;;;;;;;5.72;1.33;;;;;;;12.51;45.25;92985.81;5087764;28;20418;-73
2023/01/18 06:42:05;;;;;;;7.32;1.30;;;;;;;12.69;45.40;93021.88;5088222;28;20047;-73
2023/01/18 06:44:31;;;;;;;1.77;0.80;;;;;;;12.64;45.45;93025.03;5088352;28;20027;-73
2023/01/18 06:46:57;;;;;;;7.65;1.13;;;;;;;13.15;45.47;93079.72;5088616;28;20129;-73
2023/01/18 06:49:22;;;;;;;3.17;0.90;;;;;;;12.61;45.39;93004.56;5087215;28;20504;-73
2023/01/18 06:51:48;;;;;;;3.33;0.90;;;;;;;12.49;45.63;92978.19;5107772;28;20035;-73
2023/01/18 06:54:15;;;;;;;3.83;0.80;;;;;;;12.94;45.52;93038.78;5109782;27;20046;-73
2023/01/18 06:56:40;;;;;;;3.28;0.80;;;;;;;12.81;45.85;93038.63;5092790;28;20427;-72
2023/01/18 06:59:06;;;;;;;3.08;1.00;;;;;;;12.57;45.68;92992.91;5093436;28;20027;-73
2023/01/18 07:01:32;;;;;;;4.80;1.25;;;;;;;12.63;46.16;93001.78;5090998;28;20028;-73
2023/01/18 07:03:57;;;;;;;2.72;0.90;;;;;;;12.53;46.04;92994.25;5093097;28;20050;-73
2023/01/18 07:06:23;;;;;;;5.05;0.90;;;;;;;13.08;46.10;93080.63;5091262;28;20046;-73
2023/01/18 07:08:49;;;;;;;3.45;1.30;;;;;;;12.66;45.91;92977.97;5109392;28;20106;-73
2023/01/18 07:11:14;;;;;;;4.53;1.17;;;;;;;13.02;45.86;93008.41;5105871;27;20030;-73
2023/01/18 07:13:42;;;;;;;3.05;0.70;;;;;;;12.17;45.76;92849.25;5108756;28;20027;-72
2023/01/18 07:16:08;;;;;;;5.15;1.35;;;;;;;12.52;45.79;92933.53;5090246;28;20421;-72
2023/01/18 07:18:33;;;;;;;5.25;0.90;;;;;;;13.23;45.65;93025.84;5108275;28;20693;-72
2023/01/18 07:21:06;;;;;;;8.57;1.35;;;;;;;12.46;45.94;92908.25;5107467;28;20085;-72
2023/01/18 07:23:33;;;;;;;4.88;1.00;;;;;;;12.65;45.88;92942.50;5108046;28;20036;-72
2023/01/18 07:26:16;;;;;;;4.32;1.30;;;;;;;12.73;45.86;92971.00;5091829;28;20024;-72
2023/01/18 07:28:43;;;;;;;4.10;1.10;;;;;;;12.59;45.89;92938.00;5105303;28;20051;-72
2023/01/18 07:31:08;;;;;;;4.97;1.00;;;;;;;13.10;45.76;93026.53;5107539;28;20036;-72
2023/01/18 07:33:34;;;;;;;4.55;0.80;;;;;;;12.75;45.46;92949.00;5108895;28;20142;-72
2023/01/18 07:36:00;;;;;;;4.57;0.90;;;;;;;13.03;45.47;92989.16;5075256;28;20032;-72
2023/01/18 07:38:25;;;;;;;9.93;0.90;;;;;;;13.24;45.51;93030.88;5074709;28;20023;-72
2023/01/18 07:40:56;;;;;;;4.28;1.20;;;;;;;12.81;45.61;92924.00;5084935;28;20109;-72
2023/01/18 07:43:23;;;;;;;6.57;1.67;;;;;;;12.75;45.42;92950.78;5107718;28;20036;-73
2023/01/18 07:45:51;;;;;;;6.63;0.93;;;;;;;13.03;45.47;92986.53;5108979;28;20044;-72
2023/01/18 07:48:17;;;;;;;10.60;1.10;;;;;;;13.27;44.82;92988.81;5091021;28;20409;-72
2023/01/18 07:50:42;;;;;;;4.10;0.85;;;;;;;14.11;43.81;93052.47;5108083;28;20036;-73
2023/01/18 07:53:08;;;;;;;6.03;1.00;;;;;;;14.46;42.92;93045.44;5109273;27;20023;-72
2023/01/18 07:55:33;;;;;;;3.53;0.90;;;;;;;14.83;41.88;93069.56;5092441;28;20040;-74
2023/01/18 07:57:59;;;;;;;5.70;0.85;;;;;;;14.99;41.62;93082.31;5110869;28;20492;-75
2023/01/18 08:00:25;;;;;;;5.97;0.98;;;;;;;15.38;41.01;93112.19;5109861;27;20034;-74
2023/01/18 08:02:51;;;;;;;6.53;1.00;;;;;;;15.32;40.79;93092.03;5110460;28;20045;-75
2023/01/18 08:05:20;;;;;;;3.38;0.93;;;;;;;15.35;40.55;93123.03;5110299;27;20386;-75
2023/01/18 08:07:45;;;;;;;3.80;0.82;;;;;;;15.38;40.76;93159.28;5092529;28;20088;-75
2023/01/18 08:10:13;;;;;;;5.85;1.27;;;;;;;14.98;41.33;93123.31;5092036;28;20039;-75
2023/01/18 08:12:39;;;;;;;5.95;1.00;;;;;;;14.85;41.68;93170.31;5090925;28;20071;-75
2023/01/18 08:15:05;;;;;;;2.78;0.98;;;;;;;14.59;41.93;93138.78;5091796;28;20065;-75
2023/01/18 08:17:30;;;;;;;3.13;0.90;;;;;;;14.60;42.04;93169.13;5074995;28;20031;-76
2023/01/18 08:19:56;;;;;;;4.32;0.90;;;;;;;14.75;42.38;93175.06;5073274;28;20040;-76
2023/01/18 08:22:21;;;;;;;2.83;0.70;;;;;;;14.66;42.30;93182.25;5089417;28;20478;-76
2023/01/18 08:24:47;;;;;;;4.15;0.90;;;;;;;14.64;42.09;93189.47;5091233;28;20039;-76
2023/01/18 08:27:12;;;;;;;3.28;0.98;;;;;;;14.53;42.39;93193.41;5090963;28;20021;-75
2023/01/18 08:29:38;;;;;;;3.08;0.73;;;;;;;14.56;42.18;93201.88;5090702;28;20052;-76
2023/01/18 08:32:03;;;;;;;6.05;1.00;;;;;;;14.64;42.40;93220.84;5067936;28;20048;-76
2023/01/18 08:34:29;;;;;;;4.13;1.05;;;;;;;14.57;42.78;93199.09;5104481;28;20052;-77
2023/01/18 08:36:54;;;;;;;5.00;0.90;;;;;;;14.62;42.41;93191.47;5091561;28;20039;-75
2023/01/18 08:39:20;;;;;;;5.85;2.58;;;;;;;14.56;42.35;93171.34;5093074;28;20040;-75
2023/01/18 08:41:45;;;;;;;3.75;0.88;;;;;;;14.68;42.51;93190.72;5091396;28;20028;-75
2023/01/18 08:44:11;;;;;;;3.33;0.82;;;;;;;14.54;42.55;93189.00;5092776;28;20038;-74
2023/01/18 08:46:38;;;;;;;6.63;1.25;;;;;;;14.56;42.82;93197.47;5073873;28;20032;-75
2023/01/18 08:49:05;;;;;;;3.22;1.02;;;;;;;14.64;42.81;93199.13;5092822;28;20417;-75
2023/01/18 08:51:30;;;;;;;8.55;1.85;;;;;;;14.60;42.87;93224.00;5080972;28;20035;-74
2023/01/18 17:25:06;;;;;;;12.45;2.45;;;;;;;11.76;46.30;93608.56;5070414;28;20122;-77
2023/01/18 17:27:40;;;;;;;12.60;3.13;;;;;;;11.60;46.07;93599.78;5044395;28;20071;-77
2023/01/18 17:30:06;;;;;;;9.48;3.97;;;;;;;11.47;46.48;93620.25;5037614;28;20039;-77
2023/01/18 17:32:32;;;;;;;8.80;3.17;;;;;;;11.54;47.67;93615.22;5025909;28;20033;-77
2023/01/18 17:34:58;;;;;;;10.10;2.10;;;;;;;11.44;45.91;93623.16;5027140;28;20036;-77
2023/01/18 17:37:23;;;;;;;14.60;2.50;;;;;;;11.29;46.98;93596.19;5013430;28;21070;-76
2023/01/18 17:39:49;;;;;;;10.77;2.15;;;;;;;11.42;47.69;93617.31;5072829;28;20024;-77
2023/01/18 17:42:14;;;;;;;14.50;3.60;;;;;;;11.08;47.88;93641.63;5030115;28;20032;-76
2023/01/18 17:44:40;;;;;;;15.30;4.32;;;;;;;11.00;46.82;93631.19;5050517;28;20079;-75
2023/01/18 17:47:06;;;;;;;13.90;3.10;;;;;;;10.59;47.23;93636.28;5067402;28;20479;-73
2023/01/18 17:49:31;;;;;;;18.33;3.80;;;;;;;10.71;47.87;93639.41;5030236;28;20165;-75
2023/01/18 17:51:57;;;;;;;19.25;3.50;;;;;;;10.47;48.56;93650.47;5032189;28;20447;-76
2023/01/18 17:54:22;;;;;;;11.98;3.03;;;;;;;10.40;49.73;93649.47;5027782;28;20033;-75
2023/01/18 17:56:48;;;;;;;12.93;2.53;;;;;;;10.36;49.01;93645.53;5015776;28;20032;-76
2023/01/18 17:59:14;;;;;;;11.65;2.80;;;;;;;9.99;48.52;93628.44;5029808;28;20165;-76
2023/01/18 18:01:39;;;;;;;12.40;2.92;;;;;;;10.10;49.53;93635.97;5048902;28;20029;-76
2023/01/18 18:04:05;;;;;;;9.18;2.63;;;;;;;9.96;50.09;93629.53;5045941;28;20501;-75
2023/01/18 18:06:33;;;;;;;10.85;2.92;;;;;;;10.21;48.05;93630.50;5045001;28;20060;-74
2023/01/18 18:08:59;;;;;;;16.77;3.22;;;;;;;10.40;49.68;93668.47;5029039;28;20023;-75
2023/01/18 18:11:24;;;;;;;11.15;1.95;;;;;;;10.20;50.18;93654.84;5027030;28;20040;-77
2023/01/18 18:13:50;;;;;;;10.75;2.30;;;;;;;10.15;50.45;93648.50;5054637;28;20101;-75
2023/01/18 18:16:15;;;;;;;12.35;1.80;;;;;;;9.87;49.63;93661.59;5027805;28;20025;-74
2023/01/18 18:18:41;;;;;;;16.70;2.20;;;;;;;9.84;49.84;93641.97;5022506;28;20029;-75
2023/01/18 18:21:06;;;;;;;18.27;3.40;;;;;;;10.01;49.81;93658.44;5032654;28;20045;-75
2023/01/18 18:23:32;;;;;;;39.60;11.82;;;;;;;9.94;49.82;93638.44;5050392;28;20049;-75
2023/01/18 18:25:58;;;;;;;52.95;14.50;;;;;;;10.14;49.82;93668.44;5033094;28;20020;-75
2023/01/18 18:28:23;;;;;;;65.10;16.67;;;;;;;10.35;48.67;93677.69;5067101;28;20112;-75
2023/01/18 18:30:52;;;;;;;91.22;23.50;;;;;;;10.30;49.72;93672.94;5032415;28;20107;-75
2023/01/18 18:33:18;;;;;;;66.10;14.60;;;;;;;10.24;50.13;93635.41;5034365;28;20039;-76
2023/01/18 18:35:45;;;;;;;38.80;9.18;;;;;;;10.16;50.66;93682.06;5033864;28;20024;-76
2023/01/18 18:38:14;;;;;;;30.02;10.73;;;;;;;10.39;50.87;93681.56;5017837;28;20440;-75
2023/01/18 18:40:40;;;;;;;40.72;7.72;;;;;;;10.07;52.14;93675.19;5050962;28;20038;-76
2023/01/18 18:43:05;;;;;;;24.33;8.68;;;;;;;10.07;51.91;93677.78;5035666;28;20036;-76
2023/01/18 18:45:31;;;;;;;17.63;6.18;;;;;;;10.01;52.76;93681.81;5036005;28;20028;-77
2023/01/18 18:47:57;;;;;;;12.73;4.22;;;;;;;9.91;52.68;93677.66;5037409;28;20123;-77
2023/01/18 18:50:22;;;;;;;13.40;3.80;;;;;;;9.74;52.92;93659.38;5039893;28;20521;-76
2023/01/18 18:52:47;;;;;;;24.05;4.07;;;;;;;9.81;53.07;93673.38;5056480;28;20039;-76
2023/01/18 18:55:13;;;;;;;47.70;15.55;;;;;;;9.95;51.43;93690.19;5056804;28;20482;-75
2023/01/18 18:57:38;;;;;;;22.63;8.25;;;;;;;9.76;51.09;93685.97;5074683;28;20040;-76
2023/01/18 19:00:07;;;;;;;25.92;7.80;;;;;;;9.71;51.89;93714.13;5056518;28;20498;-76
2023/01/18 19:02:33;;;;;;;14.38;3.65;;;;;;;9.34;53.14;93688.34;5038584;28;20037;-76
2023/01/18 19:04:59;;;;;;;21.88;5.35;;;;;;;9.56;50.96;93715.63;5039384;28;20078;-76
2023/01/18 19:07:24;;;;;;;18.20;5.30;;;;;;;9.78;50.84;93716.97;5038763;28;20036;-76
2023/01/18 19:09:50;;;;;;;25.48;7.15;;;;;;;9.76;50.10;93692.94;5056339;28;20024;-76
2023/01/18 19:12:15;;;;;;;15.05;4.93;;;;;;;9.78;50.48;93702.22;5023189;28;20066;-77
2023/01/18 19:14:41;;;;;;;27.77;11.98;;;;;;;9.95;51.24;93704.94;5039675;28;20123;-77
2023/01/18 19:17:06;;;;;;;30.65;13.68;;;;;;;9.91;51.25;93694.03;5055994;28;20035;-77
2023/01/18 19:19:31;;;;;;;41.38;16.35;;;;;;;9.40;52.54;93740.41;5039554;28;20025;-77
2023/01/18 19:21:57;;;;;;;26.92;9.68;;;;;;;9.23;52.05;93723.06;5039393;28;20043;-77
2023/01/18 19:24:22;;;;;;;23.30;8.70;;;;;;;9.42;51.33;93739.44;5039261;28;20098;-77
2023/01/18 19:26:48;;;;;;;23.95;9.02;;;;;;;9.20;52.07;93733.72;5056091;28;20029;-77
2023/01/18 19:29:13;;;;;;;18.15;6.50;;;;;;;9.10;51.87;93718.22;5055809;28;20035;-78
2023/01/18 19:31:39;;;;;;;14.77;5.88;;;;;;;9.27;52.24;93758.06;5073398;28;20074;-78
2023/01/18 19:34:05;;;;;;;18.70;6.05;;;;;;;9.50;53.19;93758.50;5073565;28;20472;-77
2023/01/18 19:36:30;;;;;;;20.80;5.30;;;;;;;9.28;53.62;93718.25;5073543;28;20032;-77
2023/01/18 19:38:57;;;;;;;15.00;5.43;;;;;;;9.25;51.40;93715.97;5055722;28;20025;-77
2023/01/18 19:41:23;;;;;;;20.92;6.25;;;;;;;9.25;52.52;93754.84;5056075;28;20032;-78
2023/01/18 19:43:49;;;;;;;21.80;7.32;;;;;;;9.18;52.73;93736.44;5055390;28;20021;-78
2023/01/18 19:46:15;;;;;;;17.10;6.90;;;;;;;9.31;53.51;93769.81;5039231;28;20044;-79
2023/01/18 19:48:41;;;;;;;15.43;6.03;;;;;;;9.36;53.87;93753.78;5039761;28;20512;-77
2023/01/18 19:51:11;;;;;;;13.68;5.43;;;;;;;9.32;54.66;93740.31;5035080;28;20021;-77
2023/01/18 19:53:36;;;;;;;14.02;5.75;;;;;;;9.45;53.81;93759.91;5052305;28;20037;-77
2023/01/18 19:56:02;;;;;;;18.42;5.53;;;;;;;9.35;53.78;93754.78;5035567;28;20057;-77
2023/01/18 19:58:32;;;;;;;21.88;8.45;;;;;;;9.29;54.14;93745.00;5018460;28;20071;-77
2023/01/18 20:00:58;;;;;;;95.95;32.88;;;;;;;9.31;53.31;93769.00;5051341;28;20031;-77
2023/01/18 20:03:25;;;;;;;31.50;8.63;;;;;;;9.09;53.81;93750.28;5033182;28;20025;-78
2023/01/18 20:05:50;;;;;;;13.07;4.90;;;;;;;9.10;53.65;93751.06;5039168;28;20121;-78
2023/01/18 20:08:16;;;;;;;14.55;5.43;;;;;;;9.31;54.03;93766.41;5073108;28;20063;-78
2023/01/18 20:10:41;;;;;;;19.67;5.10;;;;;;;9.55;54.36;93755.47;5073058;28;20513;-78
2023/01/18 20:13:07;;;;;;;15.15;5.82;;;;;;;9.52;54.99;93769.53;5072867;28;20090;-78
2023/01/18 20:15:32;;;;;;;26.67;9.82;;;;;;;9.58;54.86;93770.72;5043829;28;20033;-77
2023/01/18 20:17:58;;;;;;;34.85;15.38;;;;;;;9.56;54.18;93760.50;5059303;28;20460;-79
2023/01/18 20:20:23;;;;;;;40.58;19.95;;;;;;;9.25;53.96;93747.06;5054344;28;20029;-81
2023/01/18 20:22:49;;;;;;;61.55;28.15;;;;;;;8.94;54.58;93751.69;5054562;28;20032;-78
2023/01/18 20:25:14;;;;;;;73.60;30.83;;;;;;;8.88;54.43;93749.66;5021556;28;20110;-77
2023/01/18 20:27:40;;;;;;;89.93;29.45;;;;;;;8.98;55.24;93767.78;5065928;28;20402;-78
2023/01/18 20:30:06;;;;;;;52.60;17.90;;;;;;;9.11;56.07;93776.84;5054451;28;20020;-78
2023/01/18 20:32:32;;;;;;;25.45;8.18;;;;;;;9.01;56.74;93791.63;5071989;28;20101;-76
2023/01/18 20:34:57;;;;;;;41.20;9.05;;;;;;;9.07;55.64;93751.38;5067769;28;20029;-76